Time;durP1;ratioP1;P1;durP2;ratioP2;P2;SDS_P1;SDS_P2;PMS_P1;PMS_P2;Temp;Humidity;BMP_temperature;BMP_pressure;BME280_temperature;BME280_humidity;BME280_pressure;Samples;Min_cycle;Max_cycle;Signal;HPM_P1;HPM_P2
2022/10/31 00:00:22;;;;;;;;;;;;;;;10.84;100.00;98372.25;7388074;19;20359;-59
2022/10/31 00:02:55;;;;;;;;;;;;;;;10.68;100.00;98370.63;7390995;19;19906;-54
2022/10/31 00:05:27;;;;;;;;;;;;;;;11.06;100.00;98374.53;7390397;19;19922;-54
2022/10/31 00:08:00;;;;;;;;;;;;;;;11.30;100.00;98367.78;7387226;19;19918;-52
2022/10/31 00:10:33;;;;;;;;;;;;;;;11.37;100.00;98366.47;7391376;19;20247;-54
2022/10/31 00:13:09;;;;;;;;;;;;;;;11.28;100.00;98377.53;7391810;19;20335;-54
2022/10/31 00:15:42;;;;;;;;;;;;;;;11.29;100.00;98374.00;7391520;19;19914;-54
2022/10/31 00:18:15;;;;;;;;;;;;;;;11.15;100.00;98377.44;7388801;19;19932;-53
2022/10/31 00:20:48;;;;;;;;;;;;;;;11.01;100.00;98366.91;7385081;19;20365;-54
2022/10/31 00:23:21;;;;;;;;;;;;;;;11.24;100.00;98370.75;7386428;19;19983;-52
2022/10/31 00:25:54;;;;;;;;;;;;;;;11.16;100.00;98368.59;7391505;19;20293;-55
2022/10/31 00:28:30;;;;;;;;;;;;;;;11.22;100.00;98365.59;7386838;19;20818;-54
2022/10/31 00:31:04;;;;;;;;;;;;;;;11.24;100.00;98366.34;7389478;19;19925;-55
2022/10/31 00:33:39;;;;;;;;;;;;;;;11.27;100.00;98374.06;7383721;19;19914;-60
2022/10/31 00:36:13;;;;;;;;;;;;;;;11.20;100.00;98369.25;7388189;19;19923;-54
2022/10/31 00:38:47;;;;;;;;;;;;;;;11.15;100.00;98373.97;7387850;19;19927;-53
2022/10/31 00:41:21;;;;;;;;;;;;;;;11.18;100.00;98371.16;7390881;19;20802;-53
2022/10/31 00:43:56;;;;;;;;;;;;;;;11.07;100.00;98373.59;7388210;19;19919;-55
2022/10/31 00:46:29;;;;;;;;;;;;;;;10.92;100.00;98375.28;7382184;19;19925;-56
2022/10/31 00:49:02;;;;;;;;;;;;;;;11.14;100.00;98375.75;7388080;19;19970;-57
2022/10/31 00:51:35;;;;;;;;;;;;;;;10.98;100.00;98374.97;7388884;19;19915;-53
2022/10/31 00:54:08;;;;;;;;;;;;;;;10.79;100.00;98373.47;7387785;19;19929;-55
2022/10/31 00:56:41;;;;;;;;;;;;;;;11.03;100.00;98372.06;7387958;19;20327;-55
2022/10/31 00:59:17;;;;;;;;;;;;;;;11.05;100.00;98364.91;7383377;19;19919;-56
2022/10/31 01:01:49;;;;;;;;;;;;;;;10.98;100.00;98368.84;7387683;19;20363;-56
2022/10/31 01:04:22;;;;;;;;;;;;;;;10.89;100.00;98364.97;7387306;19;19915;-55
2022/10/31 01:06:55;;;;;;;;;;;;;;;10.94;100.00;98370.78;7384492;19;19918;-50
2022/10/31 01:09:30;;;;;;;;;;;;;;;11.03;100.00;98370.25;7386954;19;19926;-54
2022/10/31 01:12:02;;;;;;;;;;;;;;;10.95;100.00;98380.38;7384497;19;20508;-59
2022/10/31 01:14:38;;;;;;;;;;;;;;;10.97;100.00;98372.38;7388391;19;19918;-56
2022/10/31 01:17:11;;;;;;;;;;;;;;;11.15;100.00;98371.34;7390138;19;19915;-54
2022/10/31 01:19:44;;;;;;;;;;;;;;;10.89;100.00;98377.25;7385737;19;19921;-55
2022/10/31 01:22:17;;;;;;;;;;;;;;;10.82;100.00;98378.56;7388484;19;19918;-55
2022/10/31 01:24:50;;;;;;;;;;;;;;;10.89;100.00;98378.13;7383351;19;19915;-56
2022/10/31 01:27:25;;;;;;;;;;;;;;;10.46;100.00;98378.91;7385280;19;20307;-54
2022/10/31 01:30:01;;;;;;;;;;;;;;;10.60;100.00;98378.97;7386510;19;19923;-55
2022/10/31 01:32:34;;;;;;;;;;;;;;;10.75;100.00;98372.81;7385569;19;19919;-53
2022/10/31 01:35:07;;;;;;;;;;;;;;;10.84;100.00;98377.53;7387506;19;19919;-55
2022/10/31 01:37:40;;;;;;;;;;;;;;;10.91;100.00;98385.91;7384157;19;19915;-60
2022/10/31 01:40:13;;;;;;;;;;;;;;;11.02;100.00;98378.25;7386567;19;19978;-55
2022/10/31 01:42:46;;;;;;;;;;;;;;;10.60;100.00;98378.97;7386488;19;20319;-52
2022/10/31 01:45:23;;;;;;;;;;;;;;;10.63;100.00;98384.03;7380819;19;20327;-55
2022/10/31 01:47:56;;;;;;;;;;;;;;;10.63;100.00;98380.56;7388933;19;19935;-52
2022/10/31 01:50:34;;;;;;;;;;;;;;;10.67;100.00;98387.34;7385073;19;20243;-59
2022/10/31 01:53:08;;;;;;;;;;;;;;;10.65;100.00;98383.94;7387771;19;19935;-54
2022/10/31 01:55:42;;;;;;;;;;;;;;;10.57;100.00;98388.78;7389025;19;19940;-49
2022/10/31 01:58:18;;;;;;;;;;;;;;;10.70;100.00;98387.16;7384222;19;19918;-54
2022/10/31 02:00:57;;;;;;;;;;;;;;;10.71;100.00;98386.22;7385860;19;19914;-54
2022/10/31 02:03:31;;;;;;;;;;;;;;;10.74;100.00;98383.41;7381032;19;20322;-53
2022/10/31 02:06:04;;;;;;;;;;;;;;;10.58;100.00;98385.22;7387134;19;19918;-55
2022/10/31 02:08:37;;;;;;;;;;;;;;;10.56;100.00;98381.84;7386921;19;19971;-52
2022/10/31 02:11:10;;;;;;;;;;;;;;;10.76;100.00;98384.16;7388075;19;20289;-53
2022/10/31 02:13:43;;;;;;;;;;;;;;;10.62;100.00;98386.78;7387995;19;20343;-54
2022/10/31 02:16:19;;;;;;;;;;;;;;;10.55;100.00;98385.41;7380842;19;19998;-54
2022/10/31 02:18:52;;;;;;;;;;;;;;;10.54;100.00;98384.56;7385355;19;19923;-55
2022/10/31 02:21:30;;;;;;;;;;;;;;;10.42;100.00;98380.00;7386050;19;19921;-60
2022/10/31 02:24:22;;;;;;;;;;;;;;;10.24;100.00;98390.69;7385234;19;19922;-55
2022/10/31 02:27:00;;;;;;;;;;;;;;;10.55;100.00;98390.69;7381222;19;19907;-55
2022/10/31 02:29:57;;;;;;;;;;;;;;;10.23;100.00;98391.63;7385925;19;19915;-54
2022/10/31 02:32:38;;;;;;;;;;;;;;;10.65;100.00;98384.78;7384267;19;19923;-55
2022/10/31 02:35:16;;;;;;;;;;;;;;;10.43;100.00;98391.34;7384771;19;20227;-55
2022/10/31 02:37:53;;;;;;;;;;;;;;;10.54;100.00;98384.56;7384941;19;19935;-52
2022/10/31 02:40:29;;;;;;;;;;;;;;;10.29;100.00;98391.31;7385673;19;19911;-54
2022/10/31 02:43:41;;;;;;;;;;;;;;;10.31;100.00;98387.66;7379755;19;19919;-54
2022/10/31 02:46:19;;;;;;;;;;;;;;;10.42;100.00;98385.28;7375750;19;19919;-56
2022/10/31 02:48:59;;;;;;;;;;;;;;;10.47;100.00;98387.63;7377396;19;19915;-54
2022/10/31 02:51:32;;;;;;;;;;;;;;;10.20;100.00;98389.19;7375679;19;19923;-50
2022/10/31 02:54:05;;;;;;;;;;;;;;;10.26;100.00;98386.22;7381229;19;20414;-56
2022/10/31 02:56:38;;;;;;;;;;;;;;;10.16;100.00;98398.16;7380897;19;20484;-55
2022/10/31 02:59:11;;;;;;;;;;;;;;;10.26;100.00;98389.69;7380517;19;19923;-55
2022/10/31 03:01:52;;;;;;;;;;;;;;;10.43;100.00;98393.97;7382347;19;19918;-56
2022/10/31 03:04:35;;;;;;;;;;;;;;;9.94;100.00;98397.66;7374806;19;20335;-54
2022/10/31 03:07:17;;;;;;;;;;;;;;;10.31;100.00;98407.81;7381052;19;20366;-53
2022/10/31 03:09:58;;;;;;;;;;;;;;;10.37;100.00;98389.91;7378260;19;19919;-54
2022/10/31 03:12:35;;;;;;;;;;;;;;;10.18;100.00;98405.03;7381972;19;19918;-54
2022/10/31 03:15:13;;;;;;;;;;;;;;;10.13;100.00;98399.19;7375281;19;19946;-54
2022/10/31 03:17:53;;;;;;;;;;;;;;;9.72;100.00;98402.38;7384163;19;19934;-52
2022/10/31 03:20:31;;;;;;;;;;;;;;;9.82;100.00;98398.31;7381912;19;19927;-54
2022/10/31 03:23:05;;;;;;;;;;;;;;;10.05;100.00;98398.78;7384791;19;19919;-53
2022/10/31 03:25:38;;;;;;;;;;;;;;;9.81;100.00;98410.59;7381518;19;19970;-60
2022/10/31 03:28:12;;;;;;;;;;;;;;;9.74;100.00;98414.47;7383465;19;19917;-55
2022/10/31 03:30:48;;;;;;;;;;;;;;;9.47;100.00;98417.69;7384913;19;19919;-55
2022/10/31 03:33:24;;;;;;;;;;;;;;;9.53;100.00;98422.63;7378310;19;19943;-51
2022/10/31 03:36:02;;;;;;;;;;;;;;;9.75;100.00;98408.31;7383056;19;19911;-54
2022/10/31 03:38:36;;;;;;;;;;;;;;;9.90;100.00;98411.88;7378082;19;19946;-53
2022/10/31 03:41:11;;;;;;;;;;;;;;;9.64;100.00;98415.06;7382638;19;19922;-55
2022/10/31 03:43:47;;;;;;;;;;;;;;;9.50;100.00;98418.38;7381283;19;20376;-58
2022/10/31 03:46:20;;;;;;;;;;;;;;;9.71;100.00;98419.06;7381287;19;20315;-56
2022/10/31 03:48:53;;;;;;;;;;;;;;;9.92;100.00;98421.38;7382955;19;19927;-55
2022/10/31 03:51:32;;;;;;;;;;;;;;;9.79;100.00;98422.13;7378624;19;19918;-56
2022/10/31 03:54:08;;;;;;;;;;;;;;;9.60;100.00;98418.75;7381721;19;19911;-54
2022/10/31 03:56:42;;;;;;;;;;;;;;;9.75;100.00;98429.34;7376917;19;19911;-59
2022/10/31 03:59:18;;;;;;;;;;;;;;;9.59;100.00;98428.41;7384713;19;20000;-55
2022/10/31 04:01:54;;;;;;;;;;;;;;;9.06;100.00;98432.09;7390533;19;20232;-53
2022/10/31 04:04:27;;;;;;;;;;;;;;;9.29;100.00;98430.00;7388439;19;19932;-54
2022/10/31 04:07:03;;;;;;;;;;;;;;;9.66;100.00;98426.34;7390334;19;19918;-54
2022/10/31 04:09:40;;;;;;;;;;;;;;;9.62;100.00;98424.78;7382959;19;19915;-57
2022/10/31 04:12:15;;;;;;;;;;;;;;;9.43;100.00;98424.03;7390888;19;19943;-55
2022/10/31 04:15:04;;;;;;;;;;;;;;;9.53;100.00;98428.75;7386719;19;19915;-54
2022/10/31 04:17:39;;;;;;;;;;;;;;;9.47;100.00;98429.03;7390062;19;19952;-55
2022/10/31 04:20:12;;;;;;;;;;;;;;;9.47;100.00;98429.03;7385516;19;19932;-58
2022/10/31 04:22:48;;;;;;;;;;;;;;;9.57;100.00;98435.53;7388714;19;20592;-55
2022/10/31 04:25:21;;;;;;;;;;;;;;;9.53;100.00;98431.38;7388844;19;19978;-53
2022/10/31 04:27:55;;;;;;;;;;;;;;;9.59;100.00;98432.81;7389417;19;19923;-56
2022/10/31 04:30:29;;;;;;;;;;;;;;;9.48;100.00;98437.78;7389044;19;19914;-54
2022/10/31 04:33:02;;;;;;;;;;;;;;;9.77;100.00;98431.84;7384540;19;19926;-63
2022/10/31 04:35:35;;;;;;;;;;;;;;;9.53;100.00;98435.75;7389624;19;19918;-53
2022/10/31 04:38:11;;;;;;;;;;;;;;;9.38;100.00;98426.06;7390889;19;19919;-54
2022/10/31 04:40:45;;;;;;;;;;;;;;;9.47;100.00;98434.28;7388474;19;20599;-55
2022/10/31 04:43:41;;;;;;;;;;;;;;;9.72;100.00;98426.88;7387334;19;19919;-63
2022/10/31 04:46:13;;;;;;;;;;;;;;;9.40;100.00;98429.44;7386974;19;19927;-54
2022/10/31 04:48:46;;;;;;;;;;;;;;;9.21;100.00;98431.31;7388308;19;19922;-55
2022/10/31 04:51:19;;;;;;;;;;;;;;;9.26;100.00;98429.31;7382032;19;19918;-56
2022/10/31 04:53:55;;;;;;;;;;;;;;;9.44;100.00;98423.13;7388749;19;19959;-54
2022/10/31 04:56:33;;;;;;;;;;;;;;;9.41;100.00;98426.72;7385311;19;19922;-59
2022/10/31 04:59:10;;;;;;;;;;;;;;;9.14;100.00;98435.16;7387862;19;19915;-54
2022/10/31 05:02:01;;;;;;;;;;;;;;;9.07;100.00;98432.00;7383021;19;19984;-54
2022/10/31 05:04:50;;;;;;;;;;;;;;;9.21;100.00;98433.94;7386011;19;19922;-54
2022/10/31 05:07:24;;;;;;;;;;;;;;;9.33;100.00;98433.34;7380300;19;19919;-54
2022/10/31 05:09:59;;;;;;;;;;;;;;;9.37;100.00;98427.81;7381219;19;19918;-56
2022/10/31 05:12:32;;;;;;;;;;;;;;;9.17;100.00;98443.75;7381779;19;19974;-57
2022/10/31 05:15:14;;;;;;;;;;;;;;;9.52;100.00;98437.53;7387461;19;19915;-56
2022/10/31 05:18:19;;;;;;;;;;;;;;;9.03;100.00;98438.34;7383853;19;19914;-54
2022/10/31 05:21:11;;;;;;;;;;;;;;;9.46;100.00;98435.22;7379014;19;19938;-56
2022/10/31 05:23:49;;;;;;;;;;;;;;;9.39;100.00;98433.00;7383092;19;19944;-54
2022/10/31 05:26:25;;;;;;;;;;;;;;;9.26;100.00;98439.81;7384990;19;19911;-54
2022/10/31 05:29:00;;;;;;;;;;;;;;;9.24;100.00;98442.50;7385069;19;19914;-56
2022/10/31 05:31:32;;;;;;;;;;;;;;;9.35;100.00;98441.97;7385673;19;19917;-53
2022/10/31 05:34:05;;;;;;;;;;;;;;;9.20;100.00;98450.63;7381324;19;20340;-54
2022/10/31 05:37:14;;;;;;;;;;;;;;;9.45;100.00;98446.63;7379048;19;20336;-56
2022/10/31 05:39:48;;;;;;;;;;;;;;;9.33;100.00;98454.31;7385156;19;20404;-55
2022/10/31 05:42:26;;;;;;;;;;;;;;;9.33;100.00;98457.78;7385838;19;19923;-55
2022/10/31 05:44:58;;;;;;;;;;;;;;;9.37;100.00;98453.25;7383582;19;20608;-56
2022/10/31 05:47:56;;;;;;;;;;;;;;;9.22;100.00;98467.16;7382174;19;19919;-60
2022/10/31 05:51:01;;;;;;;;;;;;;;;9.41;100.00;98463.47;7383317;19;19918;-59
2022/10/31 05:53:34;;;;;;;;;;;;;;;9.43;100.00;98460.78;7383979;19;19945;-56
2022/10/31 05:56:07;;;;;;;;;;;;;;;9.34;100.00;98471.75;7384573;19;19915;-54
2022/10/31 05:58:42;;;;;;;;;;;;;;;9.58;100.00;98462.59;7379576;19;20395;-54
2022/10/31 06:01:15;;;;;;;;;;;;;;;9.18;100.00;98462.94;7383886;19;19915;-56
2022/10/31 06:03:50;;;;;;;;;;;;;;;9.44;100.00;98460.69;7381417;19;19954;-59
2022/10/31 06:06:25;;;;;;;;;;;;;;;9.55;100.00;98462.78;7380787;19;19915;-56
2022/10/31 06:08:58;;;;;;;;;;;;;;;9.51;100.00;98463.84;7382529;19;19915;-54
2022/10/31 06:11:32;;;;;;;;;;;;;;;9.58;100.00;98470.47;7378486;19;19932;-55
2022/10/31 06:14:11;;;;;;;;;;;;;;;9.87;100.00;98468.06;7382806;19;20316;-53
2022/10/31 06:16:52;;;;;;;;;;;;;;;9.64;100.00;98472.84;7377266;19;19918;-52
2022/10/31 06:19:51;;;;;;;;;;;;;;;9.44;100.00;98480.88;7381386;19;19909;-57
2022/10/31 06:22:27;;;;;;;;;;;;;;;9.88;100.00;98472.38;7381729;19;20016;-52
2022/10/31 06:25:01;;;;;;;;;;;;;;;9.86;100.00;98478.66;7378721;19;19938;-56
2022/10/31 06:27:41;;;;;;;;;;;;;;;9.83;100.00;98482.28;7373316;19;19968;-52
2022/10/31 06:30:22;;;;;;;;;;;;;;;9.85;100.00;98479.59;7381457;19;19911;-52
2022/10/31 06:32:56;;;;;;;;;;;;;;;9.81;100.00;98483.31;7377845;19;19915;-51
2022/10/31 06:35:29;;;;;;;;;;;;;;;9.91;100.00;98472.22;7383519;19;19951;-51
2022/10/31 06:38:05;;;;;;;;;;;;;;;9.92;100.00;98479.16;7380683;19;19915;-58
2022/10/31 06:40:45;;;;;;;;;;;;;;;9.99;100.00;98474.44;7384120;19;20406;-54
2022/10/31 06:43:28;;;;;;;;;;;;;;;10.24;100.00;98469.53;7379239;19;19919;-59
2022/10/31 06:46:29;;;;;;;;;;;;;;;10.21;100.00;98486.34;7382684;19;19974;-54
2022/10/31 06:49:15;;;;;;;;;;;;;;;10.07;100.00;98482.78;7382276;19;19926;-53
2022/10/31 06:51:55;;;;;;;;;;;;;;;10.06;100.00;98483.69;7381968;19;19918;-51
2022/10/31 06:54:29;;;;;;;;;;;;;;;10.20;100.00;98483.78;7383357;19;21023;-55
2022/10/31 06:57:02;;;;;;;;;;;;;;;10.38;100.00;98485.41;7380573;19;19927;-55
2022/10/31 06:59:35;;;;;;;;;;;;;;;10.47;100.00;98487.53;7375600;19;19919;-52
2022/10/31 07:02:45;;;;;;;;;;;;;;;10.32;100.00;98497.13;7377623;19;19911;-58
2022/10/31 07:05:18;;;;;;;;;;;;;;;10.65;100.00;98500.50;7379282;19;20320;-51
2022/10/31 07:07:53;;;;;;;;;;;;;;;10.75;100.00;98493.81;7382899;19;19966;-49
2022/10/31 07:10:28;;;;;;;;;;;;;;;10.93;100.00;98499.81;7382630;19;19926;-54
2022/10/31 07:13:08;;;;;;;;;;;;;;;11.05;100.00;98499.13;7382161;19;19915;-53
2022/10/31 07:15:43;;;;;;;;;;;;;;;11.11;100.00;98510.19;7378511;19;19918;-53
2022/10/31 07:18:19;;;;;;;;;;;;;;;11.09;100.00;98503.28;7381779;19;19951;-53
2022/10/31 07:20:54;;;;;;;;;;;;;;;10.94;100.00;98509.41;7377186;19;19911;-58
2022/10/31 07:23:27;;;;;;;;;;;;;;;11.45;100.00;98506.41;7382799;19;19922;-51
2022/10/31 07:26:27;;;;;;;;;;;;;;;11.32;100.00;98502.81;7375386;19;19918;-53
2022/10/31 07:29:00;;;;;;;;;;;;;;;11.58;100.00;98507.41;7382143;19;20454;-53
2022/10/31 07:31:34;;;;;;;;;;;;;;;11.50;100.00;98504.34;7375062;19;19930;-60
2022/10/31 07:34:17;;;;;;;;;;;;;;;11.40;100.00;98506.69;7382056;19;19948;-53
2022/10/31 07:37:09;;;;;;;;;;;;;;;11.65;100.00;98503.47;7388818;19;19915;-55
2022/10/31 07:39:42;;;;;;;;;;;;;;;11.59;100.00;98509.09;7388920;19;19910;-53
2022/10/31 07:42:15;;;;;;;;;;;;;;;11.82;100.00;98511.19;7386315;19;20328;-59
2022/10/31 07:44:51;;;;;;;;;;;;;;;11.73;100.00;98503.84;7388642;19;19911;-54
2022/10/31 07:47:47;;;;;;;;;;;;;;;11.61;100.00;98496.66;7380825;19;19946;-52
2022/10/31 07:50:41;;;;;;;;;;;;;;;12.02;100.00;98499.44;7382703;19;19915;-54
2022/10/31 07:53:40;;;;;;;;;;;;;;;12.09;100.00;98503.41;7385294;19;19978;-52
2022/10/31 07:56:28;;;;;;;;;;;;;;;11.77;100.00;98503.53;7383273;19;20010;-52
2022/10/31 07:59:01;;;;;;;;;;;;;;;12.02;100.00;98505.56;7382410;19;19930;-53
2022/10/31 08:01:35;;;;;;;;;;;;;;;12.11;100.00;98497.06;7372578;19;19978;-53
2022/10/31 08:04:26;;;;;;;;;;;;;;;12.08;100.00;98506.97;7383878;19;19923;-50
2022/10/31 08:07:20;;;;;;;;;;;;;;;12.59;100.00;98496.69;7380803;19;20250;-56
2022/10/31 08:10:08;;;;;;;;;;;;;;;12.31;100.00;98503.78;7379023;19;19926;-55
2022/10/31 08:12:50;;;;;;;;;;;;;;;12.49;100.00;98500.00;7386869;19;19907;-56
2022/10/31 08:15:23;;;;;;;;;;;;;;;12.54;100.00;98501.41;7384944;19;20315;-55
2022/10/31 08:17:57;;;;;;;;;;;;;;;12.88;100.00;98502.72;7388113;19;19915;-55
2022/10/31 08:20:31;;;;;;;;;;;;;;;12.78;100.00;98499.00;7388531;19;20015;-51
2022/10/31 08:23:07;;;;;;;;;;;;;;;12.99;100.00;98506.38;7383948;19;19948;-49
2022/10/31 08:25:42;;;;;;;;;;;;;;;12.84;100.00;98507.34;7388713;19;20982;-51
2022/10/31 08:28:16;;;;;;;;;;;;;;;13.31;100.00;98504.25;7385195;19;19917;-51
2022/10/31 08:30:50;;;;;;;;;;;;;;;13.13;100.00;98506.31;7390492;19;19953;-52
2022/10/31 08:33:49;;;;;;;;;;;;;;;13.08;100.00;98511.03;7383768;19;20569;-54
2022/10/31 08:36:25;;;;;;;;;;;;;;;13.35;100.00;98503.09;7385129;19;20015;-51
2022/10/31 08:39:00;;;;;;;;;;;;;;;13.47;100.00;98512.84;7379805;19;19944;-55
2022/10/31 08:41:35;;;;;;;;;;;;;;;13.31;100.00;98515.66;7384803;19;19923;-52
2022/10/31 08:44:08;;;;;;;;;;;;;;;13.68;100.00;98511.44;7385797;19;19928;-53
2022/10/31 08:46:41;;;;;;;;;;;;;;;13.43;100.00;98517.53;7382325;19;20227;-56
2022/10/31 08:49:13;;;;;;;;;;;;;;;13.78;100.00;98509.84;7385497;19;19936;-53
2022/10/31 08:51:48;;;;;;;;;;;;;;;13.83;100.00;98513.03;7382501;19;19949;-52
2022/10/31 08:54:24;;;;;;;;;;;;;;;14.00;100.00;98518.84;7387298;19;20020;-52
2022/10/31 08:57:00;;;;;;;;;;;;;;;13.92;100.00;98513.22;7381778;19;19918;-52
2022/10/31 08:59:45;;;;;;;;;;;;;;;13.84;100.00;98514.69;7384761;19;19919;-50
2022/10/31 09:02:38;;;;;;;;;;;;;;;14.20;100.00;98515.66;7377490;19;19915;-50
2022/10/31 09:05:14;;;;;;;;;;;;;;;13.88;100.00;98517.03;7380721;19;19944;-54
2022/10/31 09:07:47;;;;;;;;;;;;;;;14.37;100.00;98512.66;7380663;19;19919;-56
2022/10/31 09:10:22;;;;;;;;;;;;;;;14.39;100.00;98515.22;7383739;19;19919;-50
2022/10/31 09:13:01;;;;;;;;;;;;;;;14.29;100.00;98519.47;7383206;19;19946;-52
2022/10/31 09:16:03;;;;;;;;;;;;;;;14.42;100.00;98520.31;7383634;19;19929;-51
2022/10/31 09:18:37;;;;;;;;;;;;;;;14.55;100.00;98524.63;7379412;19;19923;-52
2022/10/31 09:21:13;;;;;;;;;;;;;;;14.65;100.00;98517.72;7384573;19;19936;-53
2022/10/31 09:23:46;;;;;;;;;;;;;;;14.64;100.00;98517.84;7381809;19;19926;-57
2022/10/31 09:26:21;;;;;;;;;;;;;;;14.83;100.00;98517.38;7381211;19;20441;-49
2022/10/31 09:29:32;;;;;;;;;;;;;;;14.96;100.00;98523.47;7381546;19;19970;-50
2022/10/31 09:32:10;;;;;;;;;;;;;;;14.76;100.00;98517.81;7383475;19;20526;-52
2022/10/31 09:34:51;;;;;;;;;;;;;;;15.01;100.00;98518.66;7385135;19;20670;-48
2022/10/31 09:37:26;;;;;;;;;;;;;;;14.95;100.00;98514.66;7382726;19;19956;-50
2022/10/31 09:39:59;;;;;;;;;;;;;;;14.77;100.00;98514.19;7377910;19;20300;-52
2022/10/31 09:42:50;;;;;;;;;;;;;;;15.04;100.00;98521.09;7383468;19;20295;-50
2022/10/31 09:45:32;;;;;;;;;;;;;;;14.83;100.00;98527.97;7378030;19;19919;-52
2022/10/31 09:48:21;;;;;;;;;;;;;;;14.98;100.00;98522.38;7383256;19;20291;-48
2022/10/31 09:51:15;;;;;;;;;;;;;;;14.97;100.00;98523.34;7384593;19;20265;-52
2022/10/31 09:53:49;;;;;;;;;;;;;;;15.07;100.00;98519.09;7382044;19;20360;-55
2022/10/31 09:56:27;;;;;;;;;;;;;;;15.15;100.00;98519.34;7384521;19;19917;-49
2022/10/31 09:59:07;;;;;;;;;;;;;;;15.09;100.00;98518.97;7384857;19;19922;-56
2022/10/31 10:01:45;;;;;;;;;;;;;;;15.11;100.00;98517.91;7385469;19;19918;-51
2022/10/31 10:04:40;;;;;;;;;;;;;;;15.47;100.00;98524.94;7387228;19;19926;-49
2022/10/31 10:07:27;;;;;;;;;;;;;;;15.00;100.00;98519.63;7381939;19;19947;-53
2022/10/31 10:10:03;;;;;;;;;;;;;;;15.21;100.00;98523.34;7381321;19;20339;-53
2022/10/31 10:13:18;;;;;;;;;;;;;;;15.22;100.00;98522.38;7379822;19;19914;-51
2022/10/31 10:16:07;;;;;;;;;;;;;;;15.11;100.00;98528.50;7385517;19;19921;-52
2022/10/31 10:18:45;;;;;;;;;;;;;;;15.62;100.00;98519.34;7386293;19;20416;-53
2022/10/31 10:21:29;;;;;;;;;;;;;;;15.53;100.00;98519.19;7387293;19;19919;-49
2022/10/31 10:24:09;;;;;;;;;;;;;;;15.39;100.00;98522.81;7193659;19;3661138;-48
2022/10/31 10:26:43;;;;;;;;;;;;;;;15.25;100.00;98515.06;7385789;19;20034;-51
2022/10/31 10:29:30;;;;;;;;;;;;;;;15.37;100.00;98519.47;7383386;19;19919;-52
2022/10/31 10:32:07;;;;;;;;;;;;;;;15.42;100.00;98522.63;7387893;19;19911;-54
2022/10/31 10:34:42;;;;;;;;;;;;;;;15.80;100.00;98517.09;7384570;19;20408;-51
2022/10/31 10:37:21;;;;;;;;;;;;;;;15.54;100.00;98515.56;7387260;19;19926;-53
2022/10/31 10:39:56;;;;;;;;;;;;;;;15.59;100.00;98513.41;7383772;19;20174;-48
2022/10/31 10:48:12;;;;;;;;;;;;;;;15.59;100.00;98513.41;7382727;19;19939;-59
2022/10/31 10:50:48;;;;;;;;;;;;;;;15.58;100.00;98511.72;7386974;19;19946;-52
2022/10/31 10:53:32;;;;;;;;;;;;;;;15.42;100.00;98512.03;7387046;19;19919;-55
2022/10/31 10:56:09;;;;;;;;;;;;;;;15.66;100.00;98504.91;7385212;19;20393;-48
2022/10/31 10:58:42;;;;;;;;;;;;;;;16.03;100.00;98510.88;7385614;19;19911;-54
2022/10/31 11:01:17;;;;;;;;;;;;;;;15.72;100.00;98503.59;7379539;19;19911;-51
2022/10/31 11:03:53;;;;;;;;;;;;;;;15.80;100.00;98510.00;7388168;19;20327;-49
2022/10/31 11:06:30;;;;;;;;;;;;;;;16.43;100.00;98506.81;7383103;19;19923;-54
2022/10/31 11:09:03;;;;;;;;;;;;;;;16.15;100.00;98512.56;7386697;19;19922;-51
2022/10/31 11:11:36;;;;;;;;;;;;;;;15.74;100.00;98506.94;7394562;19;19921;-53
2022/10/31 11:14:11;;;;;;;;;;;;;;;16.04;100.00;98504.59;7387519;19;19918;-56
2022/10/31 11:16:45;;;;;;;;;;;;;;;16.02;100.00;98503.88;7394652;19;19948;-49
2022/10/31 11:19:23;;;;;;;;;;;;;;;15.79;100.00;98502.16;7390458;19;19928;-60
2022/10/31 11:21:56;;;;;;;;;;;;;;;15.95;100.00;98505.31;7393286;19;19932;-51
2022/10/31 11:24:32;;;;;;;;;;;;;;;15.85;100.00;98506.97;7390321;19;19930;-50
2022/10/31 11:27:17;;;;;;;;;;;;;;;16.32;100.00;98498.81;7389409;19;19955;-48
2022/10/31 11:29:53;;;;;;;;;;;;;;;16.50;100.00;98503.56;7394227;19;19944;-49
2022/10/31 11:32:30;;;;;;;;;;;;;;;15.97;100.00;98503.41;7392098;19;20416;-50
2022/10/31 11:35:07;;;;;;;;;;;;;;;16.03;100.00;98498.44;7390248;19;19918;-52
2022/10/31 11:37:41;;;;;;;;;;;;;;;16.19;100.00;98498.13;7389186;19;19915;-53
2022/10/31 11:40:22;;;;;;;;;;;;;;;16.14;100.00;98501.13;7392474;19;19915;-56
2022/10/31 11:42:56;;;;;;;;;;;;;;;16.02;100.00;98495.91;7386703;19;20283;-53
2022/10/31 11:45:36;;;;;;;;;;;;;;;16.15;100.00;98491.31;7392185;19;19914;-53
2022/10/31 11:48:20;;;;;;;;;;;;;;;16.02;100.00;98491.47;7385965;19;19945;-53
2022/10/31 11:51:00;;;;;;;;;;;;;;;15.95;100.00;98490.25;7393528;19;20327;-54
2022/10/31 11:53:36;;;;;;;;;;;;;;;16.22;100.00;98492.53;7387403;19;19907;-56
2022/10/31 11:56:11;;;;;;;;;;;;;;;15.98;100.00;98489.16;7393870;19;19921;-48
2022/10/31 11:58:44;;;;;;;;;;;;;;;16.30;100.00;98477.72;7392348;19;19911;-48
2022/10/31 12:01:30;;;;;;;;;;;;;;;16.19;100.00;98476.88;7390945;19;19934;-53
2022/10/31 12:04:08;;;;;;;;;;;;;;;15.87;100.00;98476.72;7390826;19;19978;-51
2022/10/31 12:06:45;;;;;;;;;;;;;;;15.96;100.00;98476.00;7391769;19;20328;-52
2022/10/31 12:09:24;;;;;;;;;;;;;;;16.17;100.00;98471.69;7389799;19;19911;-49
2022/10/31 12:12:07;;;;;;;;;;;;;;;16.16;100.00;98472.63;7385863;19;19926;-50
2022/10/31 12:14:44;;;;;;;;;;;;;;;15.99;100.00;98473.13;7391250;19;19915;-49
2022/10/31 12:17:22;;;;;;;;;;;;;;;16.08;100.00;98475.06;7389137;19;20297;-53
2022/10/31 12:20:00;;;;;;;;;;;;;;;15.90;100.00;98483.63;7390938;19;19918;-51
2022/10/31 12:22:40;;;;;;;;;;;;;;;15.80;100.00;98475.53;7386834;19;19918;-53
2022/10/31 12:25:23;;;;;;;;;;;;;;;15.93;100.00;98476.25;7389676;19;20009;-52
2022/10/31 12:28:06;;;;;;;;;;;;;;;15.96;100.00;98477.81;7385119;19;19930;-53
2022/10/31 12:30:47;;;;;;;;;;;;;;;15.94;100.00;98477.94;7385999;19;19915;-53
2022/10/31 12:33:47;;;;;;;;;;;;;;;16.07;100.00;98473.38;7386695;19;19943;-51
2022/10/31 12:36:27;;;;;;;;;;;;;;;16.10;100.00;98462.53;7379208;19;19915;-54
2022/10/31 12:39:20;;;;;;;;;;;;;;;16.08;100.00;98471.56;7386214;19;19997;-51
2022/10/31 12:41:57;;;;;;;;;;;;;;;16.05;100.00;98469.97;7384054;19;20375;-52
2022/10/31 12:44:43;;;;;;;;;;;;;;;16.02;100.00;98469.38;7385372;19;19915;-55
2022/10/31 12:47:39;;;;;;;;;;;;;;;16.12;100.00;98471.19;7382232;19;19915;-57
2022/10/31 12:50:19;;;;;;;;;;;;;;;16.30;100.00;98467.09;7381871;19;19982;-59
2022/10/31 12:53:00;;;;;;;;;;;;;;;15.97;100.00;98468.91;7387241;19;19915;-51
2022/10/31 12:55:45;;;;;;;;;;;;;;;16.14;100.00;98463.97;7382093;19;19915;-60
2022/10/31 12:58:23;;;;;;;;;;;;;;;16.33;100.00;98463.34;7386563;19;19926;-55
2022/10/31 13:01:00;;;;;;;;;;;;;;;16.56;100.00;98467.72;7379939;19;19923;-53
2022/10/31 13:03:37;;;;;;;;;;;;;;;16.25;100.00;98455.16;7385916;19;19919;-51
2022/10/31 13:06:13;;;;;;;;;;;;;;;16.26;100.00;98459.47;7381660;19;19974;-60
2022/10/31 13:08:49;;;;;;;;;;;;;;;16.12;100.00;98454.44;7386659;19;19923;-52
2022/10/31 13:11:28;;;;;;;;;;;;;;;16.26;100.00;98456.84;7385251;19;21127;-53
2022/10/31 13:14:05;;;;;;;;;;;;;;;16.13;100.00;98458.78;7387641;19;19919;-52
2022/10/31 13:16:41;;;;;;;;;;;;;;;16.26;100.00;98452.38;7387693;19;19982;-52
2022/10/31 13:19:17;;;;;;;;;;;;;;;16.42;100.00;98457.34;7383877;19;19953;-52
2022/10/31 13:21:57;;;;;;;;;;;;;;;16.12;100.00;98454.44;7388688;19;19939;-52
2022/10/31 13:24:34;;;;;;;;;;;;;;;16.31;100.00;98452.84;7380305;19;19927;-54
2022/10/31 13:27:17;;;;;;;;;;;;;;;16.10;100.00;98456.34;7387972;19;19922;-55
2022/10/31 13:29:56;;;;;;;;;;;;;;;16.10;100.00;98454.56;7382921;19;20372;-52
2022/10/31 13:32:29;;;;;;;;;;;;;;;16.06;100.00;98458.44;7386830;19;19931;-53
2022/10/31 13:35:04;;;;;;;;;;;;;;;16.33;100.00;98452.72;7386781;19;19927;-59
2022/10/31 13:37:39;;;;;;;;;;;;;;;16.20;100.00;98458.16;7387998;19;19956;-53
2022/10/31 13:40:19;;;;;;;;;;;;;;;16.11;100.00;98455.38;7381172;19;20323;-55